sensor_id;sensor_type;location;lat;lon;timestamp;P1;durP1;ratioP1;P2;durP2;ratioP2
15677;SDS011;7939;50.814;6.368;2024-01-10T00:02:23;21.20;;;9.10;;
15677;SDS011;7939;50.814;6.368;2024-01-10T00:04:50;13.93;;;9.13;;
15677;SDS011;7939;50.814;6.368;2024-01-10T00:07:17;11.33;;;8.23;;
15677;SDS011;7939;50.814;6.368;2024-01-10T00:09:43;15.13;;;8.53;;
15677;SDS011;7939;50.814;6.368;2024-01-10T00:12:12;13.60;;;8.23;;
15677;SDS011;7939;50.814;6.368;2024-01-10T00:14:39;12.93;;;8.63;;
15677;SDS011;7939;50.814;6.368;2024-01-10T00:17:05;12.50;;;8.33;;
15677;SDS011;7939;50.814;6.368;2024-01-10T00:19:32;14.87;;;8.13;;
15677;SDS011;7939;50.814;6.368;2024-01-10T00:21:59;12.97;;;7.90;;
15677;SDS011;7939;50.814;6.368;2024-01-10T00:24:25;13.50;;;8.00;;
15677;SDS011;7939;50.814;6.368;2024-01-10T00:26:52;13.13;;;7.83;;
15677;SDS011;7939;50.814;6.368;2024-01-10T00:29:20;10.13;;;7.47;;
15677;SDS011;7939;50.814;6.368;2024-01-10T00:31:47;12.87;;;8.30;;
15677;SDS011;7939;50.814;6.368;2024-01-10T00:34:13;15.27;;;8.47;;
15677;SDS011;7939;50.814;6.368;2024-01-10T00:36:40;13.10;;;7.87;;
15677;SDS011;7939;50.814;6.368;2024-01-10T00:39:07;12.23;;;7.80;;
15677;SDS011;7939;50.814;6.368;2024-01-10T00:41:33;14.00;;;7.23;;
15677;SDS011;7939;50.814;6.368;2024-01-10T00:44:00;12.70;;;7.97;;
15677;SDS011;7939;50.814;6.368;2024-01-10T00:46:28;13.87;;;7.80;;
15677;SDS011;7939;50.814;6.368;2024-01-10T00:48:55;11.80;;;6.93;;
15677;SDS011;7939;50.814;6.368;2024-01-10T00:51:21;10.73;;;6.70;;
15677;SDS011;7939;50.814;6.368;2024-01-10T00:53:48;13.10;;;7.47;;
15677;SDS011;7939;50.814;6.368;2024-01-10T00:56:15;13.30;;;7.97;;
15677;SDS011;7939;50.814;6.368;2024-01-10T00:58:41;13.63;;;7.70;;
15677;SDS011;7939;50.814;6.368;2024-01-10T01:01:08;13.20;;;7.00;;
15677;SDS011;7939;50.814;6.368;2024-01-10T01:03:36;12.63;;;7.87;;
15677;SDS011;7939;50.814;6.368;2024-01-10T01:06:03;13.20;;;7.17;;
15677;SDS011;7939;50.814;6.368;2024-01-10T01:08:29;11.90;;;7.33;;
15677;SDS011;7939;50.814;6.368;2024-01-10T01:10:56;11.40;;;6.93;;
15677;SDS011;7939;50.814;6.368;2024-01-10T01:13:23;13.63;;;7.90;;
15677;SDS011;7939;50.814;6.368;2024-01-10T01:15:49;10.93;;;6.90;;
15677;SDS011;7939;50.814;6.368;2024-01-10T01:18:16;11.20;;;7.37;;
15677;SDS011;7939;50.814;6.368;2024-01-10T01:20:45;15.20;;;6.93;;
15677;SDS011;7939;50.814;6.368;2024-01-10T01:23:13;12.47;;;7.90;;
15677;SDS011;7939;50.814;6.368;2024-01-10T01:25:40;11.83;;;7.20;;
15677;SDS011;7939;50.814;6.368;2024-01-10T01:28:07;12.50;;;7.57;;
15677;SDS011;7939;50.814;6.368;2024-01-10T01:30:34;14.33;;;7.73;;
15677;SDS011;7939;50.814;6.368;2024-01-10T01:33:00;13.60;;;7.53;;
15677;SDS011;7939;50.814;6.368;2024-01-10T01:35:29;12.87;;;7.30;;
15677;SDS011;7939;50.814;6.368;2024-01-10T01:37:57;13.47;;;8.17;;
15677;SDS011;7939;50.814;6.368;2024-01-10T01:40:24;13.20;;;7.30;;
15677;SDS011;7939;50.814;6.368;2024-01-10T01:42:51;15.53;;;8.57;;
15677;SDS011;7939;50.814;6.368;2024-01-10T01:45:18;18.63;;;8.57;;
15677;SDS011;7939;50.814;6.368;2024-01-10T01:47:45;12.13;;;7.47;;
15677;SDS011;7939;50.814;6.368;2024-01-10T01:50:12;12.20;;;7.83;;
15677;SDS011;7939;50.814;6.368;2024-01-10T01:52:39;16.90;;;8.80;;
15677;SDS011;7939;50.814;6.368;2024-01-10T01:55:07;14.73;;;8.20;;
15677;SDS011;7939;50.814;6.368;2024-01-10T01:57:34;12.70;;;8.23;;
15677;SDS011;7939;50.814;6.368;2024-01-10T02:00:02;14.30;;;7.80;;
15677;SDS011;7939;50.814;6.368;2024-01-10T02:02:30;12.47;;;7.83;;
15677;SDS011;7939;50.814;6.368;2024-01-10T02:04:57;12.83;;;7.53;;
15677;SDS011;7939;50.814;6.368;2024-01-10T02:07:24;13.70;;;7.87;;
15677;SDS011;7939;50.814;6.368;2024-01-10T02:09:51;12.53;;;7.93;;
15677;SDS011;7939;50.814;6.368;2024-01-10T02:12:20;10.93;;;7.73;;
15677;SDS011;7939;50.814;6.368;2024-01-10T02:14:47;12.90;;;7.90;;
15677;SDS011;7939;50.814;6.368;2024-01-10T02:17:13;14.10;;;7.77;;
15677;SDS011;7939;50.814;6.368;2024-01-10T02:19:41;11.73;;;7.43;;
15677;SDS011;7939;50.814;6.368;2024-01-10T02:22:07;15.87;;;7.73;;
15677;SDS011;7939;50.814;6.368;2024-01-10T02:24:36;13.67;;;8.57;;
15677;SDS011;7939;50.814;6.368;2024-01-10T02:27:04;13.80;;;8.30;;
15677;SDS011;7939;50.814;6.368;2024-01-10T02:29:31;13.13;;;8.03;;
15677;SDS011;7939;50.814;6.368;2024-01-10T02:31:57;12.53;;;7.47;;
15677;SDS011;7939;50.814;6.368;2024-01-10T02:34:24;11.47;;;7.47;;
15677;SDS011;7939;50.814;6.368;2024-01-10T02:36:51;11.27;;;7.57;;
15677;SDS011;7939;50.814;6.368;2024-01-10T02:39:17;13.57;;;7.90;;
15677;SDS011;7939;50.814;6.368;2024-01-10T02:41:44;10.63;;;7.33;;
15677;SDS011;7939;50.814;6.368;2024-01-10T02:44:12;12.20;;;6.93;;
15677;SDS011;7939;50.814;6.368;2024-01-10T02:46:39;10.70;;;7.37;;
15677;SDS011;7939;50.814;6.368;2024-01-10T02:49:06;9.80;;;7.20;;
15677;SDS011;7939;50.814;6.368;2024-01-10T02:51:33;13.20;;;7.43;;
15677;SDS011;7939;50.814;6.368;2024-01-10T02:53:59;11.93;;;7.10;;
15677;SDS011;7939;50.814;6.368;2024-01-10T02:56:26;11.93;;;6.70;;
15677;SDS011;7939;50.814;6.368;2024-01-10T02:58:52;11.97;;;7.17;;
15677;SDS011;7939;50.814;6.368;2024-01-10T03:01:20;11.00;;;7.47;;
15677;SDS011;7939;50.814;6.368;2024-01-10T03:03:47;14.10;;;8.20;;
15677;SDS011;7939;50.814;6.368;2024-01-10T03:06:14;12.43;;;7.60;;
15677;SDS011;7939;50.814;6.368;2024-01-10T03:08:40;11.20;;;7.27;;
15677;SDS011;7939;50.814;6.368;2024-01-10T03:11:07;12.27;;;7.33;;
15677;SDS011;7939;50.814;6.368;2024-01-10T03:13:34;12.27;;;7.80;;
15677;SDS011;7939;50.814;6.368;2024-01-10T03:16:00;13.70;;;7.03;;
15677;SDS011;7939;50.814;6.368;2024-01-10T03:18:28;12.10;;;7.47;;
15677;SDS011;7939;50.814;6.368;2024-01-10T03:20:55;12.63;;;7.43;;
15677;SDS011;7939;50.814;6.368;2024-01-10T03:23:22;11.07;;;7.07;;
15677;SDS011;7939;50.814;6.368;2024-01-10T03:25:49;11.63;;;7.37;;
15677;SDS011;7939;50.814;6.368;2024-01-10T03:28:15;11.67;;;8.07;;
15677;SDS011;7939;50.814;6.368;2024-01-10T03:30:43;12.27;;;7.97;;
15677;SDS011;7939;50.814;6.368;2024-01-10T03:33:10;13.90;;;7.40;;
15677;SDS011;7939;50.814;6.368;2024-01-10T03:35:38;11.70;;;6.87;;
15677;SDS011;7939;50.814;6.368;2024-01-10T03:38:05;10.60;;;7.13;;
15677;SDS011;7939;50.814;6.368;2024-01-10T03:40:31;10.17;;;6.67;;
15677;SDS011;7939;50.814;6.368;2024-01-10T03:42:58;13.00;;;8.00;;
15677;SDS011;7939;50.814;6.368;2024-01-10T03:45:25;11.83;;;7.73;;
15677;SDS011;7939;50.814;6.368;2024-01-10T03:47:51;13.60;;;7.50;;
15677;SDS011;7939;50.814;6.368;2024-01-10T03:50:18;15.07;;;7.87;;
15677;SDS011;7939;50.814;6.368;2024-01-10T03:52:46;13.63;;;7.13;;
15677;SDS011;7939;50.814;6.368;2024-01-10T03:55:13;10.87;;;7.30;;
15677;SDS011;7939;50.814;6.368;2024-01-10T03:57:41;8.63;;;7.00;;
15677;SDS011;7939;50.814;6.368;2024-01-10T04:00:08;11.00;;;7.43;;
15677;SDS011;7939;50.814;6.368;2024-01-10T04:02:36;11.33;;;7.53;;
15677;SDS011;7939;50.814;6.368;2024-01-10T04:05:05;13.17;;;7.17;;
15677;SDS011;7939;50.814;6.368;2024-01-10T04:07:33;14.50;;;8.10;;
15677;SDS011;7939;50.814;6.368;2024-01-10T04:10:01;11.57;;;7.17;;
15677;SDS011;7939;50.814;6.368;2024-01-10T04:12:28;12.43;;;7.77;;
15677;SDS011;7939;50.814;6.368;2024-01-10T04:14:54;11.40;;;7.27;;
15677;SDS011;7939;50.814;6.368;2024-01-10T04:17:21;10.93;;;7.20;;
15677;SDS011;7939;50.814;6.368;2024-01-10T04:19:48;11.53;;;7.07;;
15677;SDS011;7939;50.814;6.368;2024-01-10T04:22:14;11.07;;;7.77;;
15677;SDS011;7939;50.814;6.368;2024-01-10T04:24:41;11.37;;;7.67;;
15677;SDS011;7939;50.814;6.368;2024-01-10T04:27:09;12.43;;;8.03;;
15677;SDS011;7939;50.814;6.368;2024-01-10T04:29:36;13.73;;;7.97;;
15677;SDS011;7939;50.814;6.368;2024-01-10T04:32:03;13.17;;;7.77;;
15677;SDS011;7939;50.814;6.368;2024-01-10T04:34:30;12.23;;;7.57;;
15677;SDS011;7939;50.814;6.368;2024-01-10T04:36:57;14.10;;;7.53;;
15677;SDS011;7939;50.814;6.368;2024-01-10T04:39:24;11.53;;;7.53;;
15677;SDS011;7939;50.814;6.368;2024-01-10T04:41:50;12.50;;;7.63;;
15677;SDS011;7939;50.814;6.368;2024-01-10T04:44:18;11.30;;;7.43;;
15677;SDS011;7939;50.814;6.368;2024-01-10T04:46:45;14.67;;;8.50;;
15677;SDS011;7939;50.814;6.368;2024-01-10T04:49:12;12.53;;;9.00;;
15677;SDS011;7939;50.814;6.368;2024-01-10T04:51:38;14.30;;;8.10;;
15677;SDS011;7939;50.814;6.368;2024-01-10T04:54:05;12.53;;;7.90;;
15677;SDS011;7939;50.814;6.368;2024-01-10T04:56:32;13.63;;;8.30;;
15677;SDS011;7939;50.814;6.368;2024-01-10T04:59:01;13.20;;;8.57;;
15677;SDS011;7939;50.814;6.368;2024-01-10T05:01:29;13.13;;;8.07;;
15677;SDS011;7939;50.814;6.368;2024-01-10T05:03:56;15.03;;;9.27;;
15677;SDS011;7939;50.814;6.368;2024-01-10T05:06:23;11.40;;;7.60;;
15677;SDS011;7939;50.814;6.368;2024-01-10T05:08:50;12.60;;;8.20;;
15677;SDS011;7939;50.814;6.368;2024-01-10T05:11:17;26.63;;;13.05;;
15677;SDS011;7939;50.814;6.368;2024-01-10T05:13:43;11.90;;;8.33;;
15677;SDS011;7939;50.814;6.368;2024-01-10T05:16:10;13.53;;;9.10;;
15677;SDS011;7939;50.814;6.368;2024-01-10T05:18:38;14.83;;;8.50;;
15677;SDS011;7939;50.814;6.368;2024-01-10T05:21:05;13.43;;;7.93;;
15677;SDS011;7939;50.814;6.368;2024-01-10T05:23:32;13.57;;;8.30;;
15677;SDS011;7939;50.814;6.368;2024-01-10T05:25:58;15.67;;;9.53;;
15677;SDS011;7939;50.814;6.368;2024-01-10T05:28:25;13.83;;;8.17;;
15677;SDS011;7939;50.814;6.368;2024-01-10T05:30:52;15.33;;;8.53;;
15677;SDS011;7939;50.814;6.368;2024-01-10T05:33:19;14.00;;;8.93;;
15677;SDS011;7939;50.814;6.368;2024-01-10T05:35:47;16.37;;;8.00;;
15677;SDS011;7939;50.814;6.368;2024-01-10T05:38:14;14.40;;;9.03;;
15677;SDS011;7939;50.814;6.368;2024-01-10T05:40:41;17.73;;;9.70;;
15677;SDS011;7939;50.814;6.368;2024-01-10T05:43:08;18.03;;;10.37;;
15677;SDS011;7939;50.814;6.368;2024-01-10T05:45:35;19.57;;;10.47;;
15677;SDS011;7939;50.814;6.368;2024-01-10T05:48:02;16.67;;;9.63;;
15677;SDS011;7939;50.814;6.368;2024-01-10T05:50:30;15.03;;;9.27;;
15677;SDS011;7939;50.814;6.368;2024-01-10T05:52:58;17.07;;;8.77;;
15677;SDS011;7939;50.814;6.368;2024-01-10T05:55:24;15.17;;;9.23;;
15677;SDS011;7939;50.814;6.368;2024-01-10T05:57:51;14.43;;;8.63;;
15677;SDS011;7939;50.814;6.368;2024-01-10T06:00:18;15.87;;;9.37;;
15677;SDS011;7939;50.814;6.368;2024-01-10T06:02:46;19.37;;;9.47;;
15677;SDS011;7939;50.814;6.368;2024-01-10T06:05:13;15.53;;;8.63;;
15677;SDS011;7939;50.814;6.368;2024-01-10T06:07:39;17.03;;;9.70;;
15677;SDS011;7939;50.814;6.368;2024-01-10T06:10:09;15.63;;;9.17;;
15677;SDS011;7939;50.814;6.368;2024-01-10T06:12:36;16.30;;;9.20;;
15677;SDS011;7939;50.814;6.368;2024-01-10T06:15:03;13.87;;;8.87;;
15677;SDS011;7939;50.814;6.368;2024-01-10T06:17:31;13.27;;;8.53;;
15677;SDS011;7939;50.814;6.368;2024-01-10T06:19:58;13.17;;;8.77;;
15677;SDS011;7939;50.814;6.368;2024-01-10T06:22:25;13.27;;;9.07;;
15677;SDS011;7939;50.814;6.368;2024-01-10T06:24:52;15.67;;;9.17;;
15677;SDS011;7939;50.814;6.368;2024-01-10T06:27:20;12.80;;;9.20;;
15677;SDS011;7939;50.814;6.368;2024-01-10T06:29:47;15.87;;;8.80;;
15677;SDS011;7939;50.814;6.368;2024-01-10T06:32:13;15.30;;;9.27;;
15677;SDS011;7939;50.814;6.368;2024-01-10T06:34:40;15.73;;;9.57;;
15677;SDS011;7939;50.814;6.368;2024-01-10T06:37:07;19.23;;;10.03;;
15677;SDS011;7939;50.814;6.368;2024-01-10T06:39:34;14.97;;;9.07;;
15677;SDS011;7939;50.814;6.368;2024-01-10T06:42:00;13.70;;;9.10;;
15677;SDS011;7939;50.814;6.368;2024-01-10T06:44:30;16.57;;;10.37;;
15677;SDS011;7939;50.814;6.368;2024-01-10T06:46:57;16.60;;;10.20;;
15677;SDS011;7939;50.814;6.368;2024-01-10T06:49:23;17.07;;;10.30;;
15677;SDS011;7939;50.814;6.368;2024-01-10T06:51:50;17.67;;;10.33;;
15677;SDS011;7939;50.814;6.368;2024-01-10T06:54:17;18.57;;;10.03;;
15677;SDS011;7939;50.814;6.368;2024-01-10T06:56:44;18.27;;;10.13;;
15677;SDS011;7939;50.814;6.368;2024-01-10T06:59:11;14.93;;;9.60;;
15677;SDS011;7939;50.814;6.368;2024-01-10T07:01:39;17.13;;;8.67;;
15677;SDS011;7939;50.814;6.368;2024-01-10T07:04:06;19.70;;;9.73;;
15677;SDS011;7939;50.814;6.368;2024-01-10T07:06:32;15.33;;;8.67;;
15677;SDS011;7939;50.814;6.368;2024-01-10T07:08:59;15.90;;;9.07;;
15677;SDS011;7939;50.814;6.368;2024-01-10T07:11:26;15.77;;;8.57;;
15677;SDS011;7939;50.814;6.368;2024-01-10T07:13:54;14.20;;;8.93;;
15677;SDS011;7939;50.814;6.368;2024-01-10T07:16:20;15.30;;;9.00;;
15677;SDS011;7939;50.814;6.368;2024-01-10T07:18:48;13.30;;;9.83;;
15677;SDS011;7939;50.814;6.368;2024-01-10T07:21:16;19.95;;;11.90;;
15677;SDS011;7939;50.814;6.368;2024-01-10T07:23:43;15.47;;;9.63;;
15677;SDS011;7939;50.814;6.368;2024-01-10T07:26:12;14.43;;;9.23;;
15677;SDS011;7939;50.814;6.368;2024-01-10T07:28:41;12.73;;;8.50;;
15677;SDS011;7939;50.814;6.368;2024-01-10T07:31:08;17.43;;;9.87;;
15677;SDS011;7939;50.814;6.368;2024-01-10T07:33:34;13.47;;;10.30;;
15677;SDS011;7939;50.814;6.368;2024-01-10T07:36:02;13.90;;;9.70;;
15677;SDS011;7939;50.814;6.368;2024-01-10T07:38:30;15.20;;;9.97;;
15677;SDS011;7939;50.814;6.368;2024-01-10T07:40:56;14.40;;;8.93;;
15677;SDS011;7939;50.814;6.368;2024-01-10T07:43:24;14.73;;;8.93;;
15677;SDS011;7939;50.814;6.368;2024-01-10T07:45:52;16.87;;;10.33;;
15677;SDS011;7939;50.814;6.368;2024-01-10T07:48:18;16.20;;;8.67;;
15677;SDS011;7939;50.814;6.368;2024-01-10T07:50:46;17.47;;;10.10;;
15677;SDS011;7939;50.814;6.368;2024-01-10T07:53:14;15.57;;;8.60;;
15677;SDS011;7939;50.814;6.368;2024-01-10T07:55:41;14.60;;;8.53;;
15677;SDS011;7939;50.814;6.368;2024-01-10T07:58:07;14.73;;;8.97;;
15677;SDS011;7939;50.814;6.368;2024-01-10T08:00:34;17.37;;;9.43;;
15677;SDS011;7939;50.814;6.368;2024-01-10T08:03:01;15.30;;;9.10;;
15677;SDS011;7939;50.814;6.368;2024-01-10T08:05:28;15.53;;;9.77;;
15677;SDS011;7939;50.814;6.368;2024-01-10T08:07:55;13.63;;;9.20;;
15677;SDS011;7939;50.814;6.368;2024-01-10T08:10:24;15.47;;;9.17;;
15677;SDS011;7939;50.814;6.368;2024-01-10T08:12:52;12.60;;;8.53;;
15677;SDS011;7939;50.814;6.368;2024-01-10T08:15:19;17.23;;;10.63;;
15677;SDS011;7939;50.814;6.368;2024-01-10T08:17:45;13.33;;;9.70;;
15677;SDS011;7939;50.814;6.368;2024-01-10T08:20:12;14.47;;;8.67;;
15677;SDS011;7939;50.814;6.368;2024-01-10T08:22:40;15.67;;;9.03;;
15677;SDS011;7939;50.814;6.368;2024-01-10T08:25:09;16.07;;;9.43;;
15677;SDS011;7939;50.814;6.368;2024-01-10T08:27:37;15.33;;;9.20;;
15677;SDS011;7939;50.814;6.368;2024-01-10T08:30:04;15.73;;;8.80;;
15677;SDS011;7939;50.814;6.368;2024-01-10T08:32:34;18.10;;;9.43;;
15677;SDS011;7939;50.814;6.368;2024-01-10T08:35:01;14.27;;;9.33;;
15677;SDS011;7939;50.814;6.368;2024-01-10T08:37:30;13.17;;;8.63;;
15677;SDS011;7939;50.814;6.368;2024-01-10T08:39:56;16.97;;;9.70;;
15677;SDS011;7939;50.814;6.368;2024-01-10T08:42:24;21.00;;;10.33;;
15677;SDS011;7939;50.814;6.368;2024-01-10T08:44:52;17.20;;;9.50;;
15677;SDS011;7939;50.814;6.368;2024-01-10T08:47:21;19.17;;;12.03;;
15677;SDS011;7939;50.814;6.368;2024-01-10T08:49:47;20.07;;;11.37;;
15677;SDS011;7939;50.814;6.368;2024-01-10T08:52:14;21.73;;;11.47;;
15677;SDS011;7939;50.814;6.368;2024-01-10T08:54:41;16.93;;;10.60;;
15677;SDS011;7939;50.814;6.368;2024-01-10T08:57:08;19.90;;;10.70;;
15677;SDS011;7939;50.814;6.368;2024-01-10T08:59:34;20.70;;;11.43;;
15677;SDS011;7939;50.814;6.368;2024-01-10T09:02:02;17.20;;;10.27;;
15677;SDS011;7939;50.814;6.368;2024-01-10T09:04:29;21.27;;;10.90;;
15677;SDS011;7939;50.814;6.368;2024-01-10T09:06:56;17.83;;;10.43;;
15677;SDS011;7939;50.814;6.368;2024-01-10T09:09:22;21.43;;;11.47;;
15677;SDS011;7939;50.814;6.368;2024-01-10T09:11:48;16.43;;;11.10;;
15677;SDS011;7939;50.814;6.368;2024-01-10T09:14:15;22.10;;;10.90;;
15677;SDS011;7939;50.814;6.368;2024-01-10T09:16:42;16.10;;;9.87;;
15677;SDS011;7939;50.814;6.368;2024-01-10T09:19:10;18.07;;;10.20;;
15677;SDS011;7939;50.814;6.368;2024-01-10T09:21:37;16.33;;;9.17;;
15677;SDS011;7939;50.814;6.368;2024-01-10T09:24:03;18.63;;;9.47;;
15677;SDS011;7939;50.814;6.368;2024-01-10T09:26:34;18.50;;;9.90;;
15677;SDS011;7939;50.814;6.368;2024-01-10T09:29:00;17.30;;;9.73;;
15677;SDS011;7939;50.814;6.368;2024-01-10T09:31:27;14.93;;;9.80;;
15677;SDS011;7939;50.814;6.368;2024-01-10T09:33:54;16.30;;;9.47;;
15677;SDS011;7939;50.814;6.368;2024-01-10T09:36:22;16.80;;;10.47;;
15677;SDS011;7939;50.814;6.368;2024-01-10T09:38:48;20.90;;;10.97;;
15677;SDS011;7939;50.814;6.368;2024-01-10T09:41:15;19.50;;;11.37;;
15677;SDS011;7939;50.814;6.368;2024-01-10T09:43:43;13.63;;;9.83;;
15677;SDS011;7939;50.814;6.368;2024-01-10T09:46:10;18.53;;;10.33;;
15677;SDS011;7939;50.814;6.368;2024-01-10T09:48:37;18.90;;;11.27;;
15677;SDS011;7939;50.814;6.368;2024-01-10T09:51:04;21.10;;;11.50;;
15677;SDS011;7939;50.814;6.368;2024-01-10T09:53:33;17.20;;;10.23;;
15677;SDS011;7939;50.814;6.368;2024-01-10T09:56:03;20.50;;;11.03;;
15677;SDS011;7939;50.814;6.368;2024-01-10T09:58:30;18.50;;;10.40;;
15677;SDS011;7939;50.814;6.368;2024-01-10T10:01:04;20.57;;;11.40;;
15677;SDS011;7939;50.814;6.368;2024-01-10T10:03:31;23.53;;;12.03;;
15677;SDS011;7939;50.814;6.368;2024-01-10T10:06:02;25.67;;;12.50;;
15677;SDS011;7939;50.814;6.368;2024-01-10T10:08:29;18.47;;;10.40;;
15677;SDS011;7939;50.814;6.368;2024-01-10T10:10:57;17.93;;;10.43;;
15677;SDS011;7939;50.814;6.368;2024-01-10T10:13:24;22.10;;;11.50;;
15677;SDS011;7939;50.814;6.368;2024-01-10T10:15:58;19.10;;;10.27;;
15677;SDS011;7939;50.814;6.368;2024-01-10T10:18:26;18.27;;;10.60;;
15677;SDS011;7939;50.814;6.368;2024-01-10T10:21:06;23.93;;;11.93;;
15677;SDS011;7939;50.814;6.368;2024-01-10T10:23:34;26.07;;;12.03;;
15677;SDS011;7939;50.814;6.368;2024-01-10T10:26:10;22.73;;;12.80;;
15677;SDS011;7939;50.814;6.368;2024-01-10T10:28:40;22.57;;;12.03;;
15677;SDS011;7939;50.814;6.368;2024-01-10T10:31:07;25.77;;;13.07;;
15677;SDS011;7939;50.814;6.368;2024-01-10T10:33:34;24.70;;;12.87;;
15677;SDS011;7939;50.814;6.368;2024-01-10T10:36:01;24.93;;;11.83;;
15677;SDS011;7939;50.814;6.368;2024-01-10T10:38:28;22.13;;;11.60;;
15677;SDS011;7939;50.814;6.368;2024-01-10T10:40:55;20.27;;;10.77;;
15677;SDS011;7939;50.814;6.368;2024-01-10T10:43:25;21.07;;;10.90;;
15677;SDS011;7939;50.814;6.368;2024-01-10T10:45:52;21.60;;;10.93;;
15677;SDS011;7939;50.814;6.368;2024-01-10T10:48:21;20.47;;;11.63;;
15677;SDS011;7939;50.814;6.368;2024-01-10T10:50:50;27.23;;;13.40;;
15677;SDS011;7939;50.814;6.368;2024-01-10T10:53:22;23.00;;;12.03;;
15677;SDS011;7939;50.814;6.368;2024-01-10T10:55:51;22.93;;;11.73;;
15677;SDS011;7939;50.814;6.368;2024-01-10T10:58:19;24.07;;;11.83;;
15677;SDS011;7939;50.814;6.368;2024-01-10T11:00:47;24.87;;;13.60;;
15677;SDS011;7939;50.814;6.368;2024-01-10T11:03:15;23.00;;;12.33;;
15677;SDS011;7939;50.814;6.368;2024-01-10T11:05:43;22.17;;;12.80;;
15677;SDS011;7939;50.814;6.368;2024-01-10T11:08:12;23.80;;;12.57;;
15677;SDS011;7939;50.814;6.368;2024-01-10T11:10:42;26.97;;;13.47;;
15677;SDS011;7939;50.814;6.368;2024-01-10T11:13:19;25.43;;;12.00;;
15677;SDS011;7939;50.814;6.368;2024-01-10T11:16:03;29.60;;;12.73;;
15677;SDS011;7939;50.814;6.368;2024-01-10T11:18:49;23.07;;;12.90;;
15677;SDS011;7939;50.814;6.368;2024-01-10T11:21:29;24.70;;;13.33;;
15677;SDS011;7939;50.814;6.368;2024-01-10T11:24:03;39.53;;;14.17;;
15677;SDS011;7939;50.814;6.368;2024-01-10T11:26:32;24.27;;;13.23;;
15677;SDS011;7939;50.814;6.368;2024-01-10T11:28:58;28.20;;;12.83;;
15677;SDS011;7939;50.814;6.368;2024-01-10T11:31:30;27.33;;;13.70;;
15677;SDS011;7939;50.814;6.368;2024-01-10T11:34:00;26.53;;;11.93;;
15677;SDS011;7939;50.814;6.368;2024-01-10T11:36:27;21.97;;;12.40;;
15677;SDS011;7939;50.814;6.368;2024-01-10T11:38:54;26.70;;;14.60;;
15677;SDS011;7939;50.814;6.368;2024-01-10T11:41:25;29.77;;;13.67;;
15677;SDS011;7939;50.814;6.368;2024-01-10T11:47:09;31.70;;;14.70;;
15677;SDS011;7939;50.814;6.368;2024-01-10T11:49:36;29.40;;;13.07;;
15677;SDS011;7939;50.814;6.368;2024-01-10T11:52:05;31.27;;;15.83;;
15677;SDS011;7939;50.814;6.368;2024-01-10T11:54:35;31.50;;;14.87;;
15677;SDS011;7939;50.814;6.368;2024-01-10T11:57:01;26.00;;;14.20;;
15677;SDS011;7939;50.814;6.368;2024-01-10T11:59:29;31.87;;;15.17;;
15677;SDS011;7939;50.814;6.368;2024-01-10T12:01:57;26.97;;;15.17;;
15677;SDS011;7939;50.814;6.368;2024-01-10T12:04:25;30.87;;;16.13;;
15677;SDS011;7939;50.814;6.368;2024-01-10T12:06:55;31.43;;;14.33;;
15677;SDS011;7939;50.814;6.368;2024-01-10T12:09:22;29.53;;;13.93;;
15677;SDS011;7939;50.814;6.368;2024-01-10T12:11:49;25.63;;;14.27;;
15677;SDS011;7939;50.814;6.368;2024-01-10T12:14:16;23.83;;;13.87;;
15677;SDS011;7939;50.814;6.368;2024-01-10T12:16:45;28.23;;;15.37;;
15677;SDS011;7939;50.814;6.368;2024-01-10T12:19:12;27.53;;;13.47;;
15677;SDS011;7939;50.814;6.368;2024-01-10T12:21:40;28.97;;;15.67;;
15677;SDS011;7939;50.814;6.368;2024-01-10T12:24:06;28.23;;;15.30;;
15677;SDS011;7939;50.814;6.368;2024-01-10T12:26:33;29.57;;;14.67;;
15677;SDS011;7939;50.814;6.368;2024-01-10T12:29:01;30.90;;;14.83;;
15677;SDS011;7939;50.814;6.368;2024-01-10T12:31:29;29.93;;;15.67;;
15677;SDS011;7939;50.814;6.368;2024-01-10T12:33:57;27.20;;;12.73;;
15677;SDS011;7939;50.814;6.368;2024-01-10T12:36:23;35.37;;;17.00;;
15677;SDS011;7939;50.814;6.368;2024-01-10T12:38:52;27.53;;;14.80;;
15677;SDS011;7939;50.814;6.368;2024-01-10T12:41:19;27.20;;;14.37;;
15677;SDS011;7939;50.814;6.368;2024-01-10T12:43:48;31.40;;;15.03;;
15677;SDS011;7939;50.814;6.368;2024-01-10T12:46:16;26.97;;;14.13;;
15677;SDS011;7939;50.814;6.368;2024-01-10T12:48:43;36.57;;;14.50;;
15677;SDS011;7939;50.814;6.368;2024-01-10T12:51:10;26.77;;;13.60;;
15677;SDS011;7939;50.814;6.368;2024-01-10T12:53:38;22.07;;;12.30;;
15677;SDS011;7939;50.814;6.368;2024-01-10T12:56:08;27.93;;;13.07;;
15677;SDS011;7939;50.814;6.368;2024-01-10T12:58:39;29.27;;;14.00;;
15677;SDS011;7939;50.814;6.368;2024-01-10T13:01:07;26.70;;;13.47;;
15677;SDS011;7939;50.814;6.368;2024-01-10T13:03:34;26.63;;;16.07;;
15677;SDS011;7939;50.814;6.368;2024-01-10T13:06:01;28.50;;;14.53;;
15677;SDS011;7939;50.814;6.368;2024-01-10T13:08:28;29.70;;;15.10;;
15677;SDS011;7939;50.814;6.368;2024-01-10T13:10:54;34.17;;;14.83;;
15677;SDS011;7939;50.814;6.368;2024-01-10T13:13:22;37.20;;;14.63;;
15677;SDS011;7939;50.814;6.368;2024-01-10T13:15:49;23.40;;;13.37;;
15677;SDS011;7939;50.814;6.368;2024-01-10T13:18:16;25.00;;;13.07;;
15677;SDS011;7939;50.814;6.368;2024-01-10T13:20:44;24.53;;;12.67;;
15677;SDS011;7939;50.814;6.368;2024-01-10T13:23:10;23.80;;;13.30;;
15677;SDS011;7939;50.814;6.368;2024-01-10T13:25:37;26.50;;;12.67;;
15677;SDS011;7939;50.814;6.368;2024-01-10T13:28:04;25.97;;;13.47;;
15677;SDS011;7939;50.814;6.368;2024-01-10T13:30:32;25.37;;;12.10;;
15677;SDS011;7939;50.814;6.368;2024-01-10T13:32:59;23.60;;;12.53;;
15677;SDS011;7939;50.814;6.368;2024-01-10T13:35:26;26.33;;;13.23;;
15677;SDS011;7939;50.814;6.368;2024-01-10T13:37:53;30.17;;;12.63;;
15677;SDS011;7939;50.814;6.368;2024-01-10T13:40:19;26.37;;;13.00;;
15677;SDS011;7939;50.814;6.368;2024-01-10T13:42:49;27.10;;;11.37;;
15677;SDS011;7939;50.814;6.368;2024-01-10T13:45:16;24.63;;;13.00;;
15677;SDS011;7939;50.814;6.368;2024-01-10T13:47:44;30.23;;;13.53;;
15677;SDS011;7939;50.814;6.368;2024-01-10T13:50:11;28.57;;;13.77;;
15677;SDS011;7939;50.814;6.368;2024-01-10T13:52:38;26.80;;;13.37;;
15677;SDS011;7939;50.814;6.368;2024-01-10T13:55:05;25.20;;;12.23;;
15677;SDS011;7939;50.814;6.368;2024-01-10T13:57:32;24.83;;;12.80;;
15677;SDS011;7939;50.814;6.368;2024-01-10T13:59:59;28.00;;;13.77;;
15677;SDS011;7939;50.814;6.368;2024-01-10T14:02:25;24.43;;;13.43;;
15677;SDS011;7939;50.814;6.368;2024-01-10T14:04:53;27.50;;;13.90;;
15677;SDS011;7939;50.814;6.368;2024-01-10T14:07:22;28.37;;;14.13;;
15677;SDS011;7939;50.814;6.368;2024-01-10T14:09:49;24.57;;;12.50;;
15677;SDS011;7939;50.814;6.368;2024-01-10T14:12:16;25.00;;;12.70;;
15677;SDS011;7939;50.814;6.368;2024-01-10T14:14:42;26.50;;;12.73;;
15677;SDS011;7939;50.814;6.368;2024-01-10T14:17:09;21.53;;;11.97;;
15677;SDS011;7939;50.814;6.368;2024-01-10T14:19:36;26.43;;;14.43;;
15677;SDS011;7939;50.814;6.368;2024-01-10T14:22:04;32.13;;;14.90;;
15677;SDS011;7939;50.814;6.368;2024-01-10T14:24:30;27.43;;;14.17;;
15677;SDS011;7939;50.814;6.368;2024-01-10T14:26:58;30.70;;;15.43;;
15677;SDS011;7939;50.814;6.368;2024-01-10T14:29:24;24.63;;;12.93;;
15677;SDS011;7939;50.814;6.368;2024-01-10T14:31:51;24.50;;;13.53;;
15677;SDS011;7939;50.814;6.368;2024-01-10T14:34:18;39.20;;;16.40;;
15677;SDS011;7939;50.814;6.368;2024-01-10T14:36:45;26.73;;;13.57;;
15677;SDS011;7939;50.814;6.368;2024-01-10T14:39:13;23.70;;;12.80;;
15677;SDS011;7939;50.814;6.368;2024-01-10T14:41:40;24.60;;;13.73;;
15677;SDS011;7939;50.814;6.368;2024-01-10T14:44:07;26.67;;;14.37;;
15677;SDS011;7939;50.814;6.368;2024-01-10T14:46:34;26.23;;;14.23;;
15677;SDS011;7939;50.814;6.368;2024-01-10T14:49:00;28.43;;;13.13;;